sensor_id;sensor_type;location;lat;lon;timestamp;pressure;altitude;pressure_sealevel;temperature;humidity
62438;BME280;48481;0.000;0.000;2023-05-11T00:00:46;101089.91;;;11.53;84.96
62438;BME280;48481;0.000;0.000;2023-05-11T00:03:12;101089.06;;;11.44;84.39
62438;BME280;48481;0.000;0.000;2023-05-11T00:05:37;101091.88;;;11.35;85.05
62438;BME280;48481;0.000;0.000;2023-05-11T00:08:03;101092.69;;;11.35;84.87
62438;BME280;48481;0.000;0.000;2023-05-11T00:10:28;101089.22;;;11.43;84.93
62438;BME280;48481;0.000;0.000;2023-05-11T00:12:54;101099.50;;;11.46;84.50
62438;BME280;48481;0.000;0.000;2023-05-11T00:15:20;101089.56;;;11.48;84.53
62438;BME280;48481;0.000;0.000;2023-05-11T00:17:45;101095.84;;;11.31;85.06
62438;BME280;48481;0.000;0.000;2023-05-11T00:20:10;101092.16;;;11.07;86.09
62438;BME280;48481;0.000;0.000;2023-05-11T00:22:36;101098.97;;;11.18;85.71
62438;BME280;48481;0.000;0.000;2023-05-11T00:25:02;101099.47;;;11.30;84.78
62438;BME280;48481;0.000;0.000;2023-05-11T00:27:27;101099.28;;;11.07;85.50
62438;BME280;48481;0.000;0.000;2023-05-11T00:29:52;101102.75;;;11.07;85.66
62438;BME280;48481;0.000;0.000;2023-05-11T00:32:18;101100.78;;;11.18;85.56
62438;BME280;48481;0.000;0.000;2023-05-11T00:34:43;101098.81;;;11.20;85.10
62438;BME280;48481;0.000;0.000;2023-05-11T00:37:09;101099.56;;;11.04;85.64
62438;BME280;48481;0.000;0.000;2023-05-11T00:39:34;101090.19;;;11.26;85.07
62438;BME280;48481;0.000;0.000;2023-05-11T00:42:04;101087.88;;;11.31;84.87
62438;BME280;48481;0.000;0.000;2023-05-11T00:44:30;101095.53;;;11.58;83.63
62438;BME280;48481;0.000;0.000;2023-05-11T00:46:56;101097.69;;;11.55;83.45
62438;BME280;48481;0.000;0.000;2023-05-11T00:49:22;101098.34;;;11.65;83.29
62438;BME280;48481;0.000;0.000;2023-05-11T00:51:48;101098.53;;;11.71;83.24
62438;BME280;48481;0.000;0.000;2023-05-11T00:54:14;101100.16;;;11.64;83.44
62438;BME280;48481;0.000;0.000;2023-05-11T00:56:43;101099.03;;;11.75;83.07
62438;BME280;48481;0.000;0.000;2023-05-11T00:59:09;101097.19;;;11.59;83.86
62438;BME280;48481;0.000;0.000;2023-05-11T01:01:37;101098.50;;;11.39;84.03
62438;BME280;48481;0.000;0.000;2023-05-11T01:04:02;101102.59;;;11.17;84.96
62438;BME280;48481;0.000;0.000;2023-05-11T01:06:40;101099.72;;;11.02;85.71
62438;BME280;48481;0.000;0.000;2023-05-11T01:15:10;101101.94;;;11.15;85.26
62438;BME280;48481;0.000;0.000;2023-05-11T01:17:48;101105.25;;;11.09;85.37
62438;BME280;48481;0.000;0.000;2023-05-11T01:20:19;101098.63;;;11.13;85.22
62438;BME280;48481;0.000;0.000;2023-05-11T01:31:08;101101.38;;;11.78;82.60
62438;BME280;48481;0.000;0.000;2023-05-11T01:33:36;101102.88;;;11.89;81.67
62438;BME280;48481;0.000;0.000;2023-05-11T01:36:06;101107.84;;;11.92;81.97
62438;BME280;48481;0.000;0.000;2023-05-11T01:38:39;101109.66;;;11.75;82.78
62438;BME280;48481;0.000;0.000;2023-05-11T01:41:13;101102.72;;;11.90;82.07
62438;BME280;48481;0.000;0.000;2023-05-11T01:43:40;101102.53;;;11.92;81.96
62438;BME280;48481;0.000;0.000;2023-05-11T01:46:08;101099.38;;;12.04;81.76
62438;BME280;48481;0.000;0.000;2023-05-11T01:48:39;101106.16;;;12.15;81.30
62438;BME280;48481;0.000;0.000;2023-05-11T01:51:06;101107.81;;;12.08;81.05
62438;BME280;48481;0.000;0.000;2023-05-11T01:53:36;101111.31;;;12.09;80.88
62438;BME280;48481;0.000;0.000;2023-05-11T01:56:03;101117.44;;;12.17;80.95
62438;BME280;48481;0.000;0.000;2023-05-11T01:58:31;101114.94;;;12.07;81.13
62438;BME280;48481;0.000;0.000;2023-05-11T02:00:58;101120.94;;;12.01;81.41
62438;BME280;48481;0.000;0.000;2023-05-11T02:03:31;101120.44;;;11.98;81.58
62438;BME280;48481;0.000;0.000;2023-05-11T02:05:59;101120.78;;;11.95;81.72
62438;BME280;48481;0.000;0.000;2023-05-11T02:08:28;101133.84;;;12.04;81.26
62438;BME280;48481;0.000;0.000;2023-05-11T02:10:55;101124.44;;;11.78;82.12
62438;BME280;48481;0.000;0.000;2023-05-11T02:13:22;101128.91;;;11.93;81.62
62438;BME280;48481;0.000;0.000;2023-05-11T02:15:51;101138.16;;;12.05;81.01
62438;BME280;48481;0.000;0.000;2023-05-11T02:18:19;101140.34;;;11.86;81.68
62438;BME280;48481;0.000;0.000;2023-05-11T02:20:45;101139.81;;;12.06;81.14
62438;BME280;48481;0.000;0.000;2023-05-11T02:23:12;101133.69;;;11.98;80.96
62438;BME280;48481;0.000;0.000;2023-05-11T02:25:39;101138.00;;;11.91;81.48
62438;BME280;48481;0.000;0.000;2023-05-11T02:28:05;101139.34;;;11.95;81.64
62438;BME280;48481;0.000;0.000;2023-05-11T02:30:34;101136.34;;;11.98;81.54
62438;BME280;48481;0.000;0.000;2023-05-11T02:33:05;101141.16;;;11.78;82.54
62438;BME280;48481;0.000;0.000;2023-05-11T02:35:36;101143.31;;;11.83;82.05
62438;BME280;48481;0.000;0.000;2023-05-11T02:38:02;101138.66;;;11.77;82.43
62438;BME280;48481;0.000;0.000;2023-05-11T02:40:32;101146.31;;;11.88;82.30
62438;BME280;48481;0.000;0.000;2023-05-11T02:43:06;101137.28;;;11.64;82.59
62438;BME280;48481;0.000;0.000;2023-05-11T02:45:34;101140.41;;;11.52;83.24
62438;BME280;48481;0.000;0.000;2023-05-11T02:48:05;101140.91;;;11.39;83.78
62438;BME280;48481;0.000;0.000;2023-05-11T02:50:35;101149.38;;;11.51;83.75
62438;BME280;48481;0.000;0.000;2023-05-11T02:53:05;101138.78;;;11.67;82.89
62438;BME280;48481;0.000;0.000;2023-05-11T02:55:31;101141.91;;;11.62;82.60
62438;BME280;48481;0.000;0.000;2023-05-11T02:57:57;101135.94;;;11.52;82.76
62438;BME280;48481;0.000;0.000;2023-05-11T03:00:22;101147.06;;;11.56;82.54
62438;BME280;48481;0.000;0.000;2023-05-11T03:02:48;101152.50;;;11.38;82.96
62438;BME280;48481;0.000;0.000;2023-05-11T03:05:13;101152.78;;;11.27;83.58
62438;BME280;48481;0.000;0.000;2023-05-11T03:07:39;101150.81;;;11.29;83.92
62438;BME280;48481;0.000;0.000;2023-05-11T03:10:05;101152.63;;;11.28;83.53
62438;BME280;48481;0.000;0.000;2023-05-11T03:12:32;101152.09;;;11.17;83.85
62438;BME280;48481;0.000;0.000;2023-05-11T03:14:59;101148.38;;;11.01;85.07
62438;BME280;48481;0.000;0.000;2023-05-11T03:17:29;101148.50;;;11.26;84.16
62438;BME280;48481;0.000;0.000;2023-05-11T03:19:57;101154.81;;;11.41;83.42
62438;BME280;48481;0.000;0.000;2023-05-11T03:22:23;101147.19;;;11.46;83.06
62438;BME280;48481;0.000;0.000;2023-05-11T03:24:50;101146.88;;;11.49;83.08
62438;BME280;48481;0.000;0.000;2023-05-11T03:27:17;101146.69;;;11.42;83.33
62438;BME280;48481;0.000;0.000;2023-05-11T03:29:43;101148.53;;;11.58;82.70
62438;BME280;48481;0.000;0.000;2023-05-11T03:32:10;101148.72;;;11.57;82.62
62438;BME280;48481;0.000;0.000;2023-05-11T03:34:35;101147.06;;;11.64;82.38
62438;BME280;48481;0.000;0.000;2023-05-11T03:37:01;101146.72;;;11.67;81.88
62438;BME280;48481;0.000;0.000;2023-05-11T03:39:29;101139.97;;;11.72;81.56
62438;BME280;48481;0.000;0.000;2023-05-11T03:41:55;101145.75;;;11.68;82.17
62438;BME280;48481;0.000;0.000;2023-05-11T03:44:22;101141.88;;;11.38;83.33
62438;BME280;48481;0.000;0.000;2023-05-11T03:46:49;101139.25;;;11.54;82.83
62438;BME280;48481;0.000;0.000;2023-05-11T03:49:16;101127.34;;;11.66;81.92
62438;BME280;48481;0.000;0.000;2023-05-11T03:51:43;101131.47;;;11.69;81.96
62438;BME280;48481;0.000;0.000;2023-05-11T03:54:09;101140.75;;;11.65;82.14
62438;BME280;48481;0.000;0.000;2023-05-11T03:56:35;101138.94;;;11.65;82.21
62438;BME280;48481;0.000;0.000;2023-05-11T03:59:02;101136.13;;;11.59;82.54
62438;BME280;48481;0.000;0.000;2023-05-11T04:01:29;101139.38;;;11.28;83.63
62438;BME280;48481;0.000;0.000;2023-05-11T04:03:54;101135.09;;;11.35;83.53
62438;BME280;48481;0.000;0.000;2023-05-11T04:06:20;101134.91;;;11.29;83.84
62438;BME280;48481;0.000;0.000;2023-05-11T04:08:46;101131.94;;;11.32;83.77
62438;BME280;48481;0.000;0.000;2023-05-11T04:11:11;101133.31;;;11.60;nan
62438;BME280;48481;0.000;0.000;2023-05-11T04:13:37;101136.28;;;11.65;82.37
62438;BME280;48481;0.000;0.000;2023-05-11T04:16:02;101136.63;;;11.62;82.58
62438;BME280;48481;0.000;0.000;2023-05-11T04:18:28;101140.00;;;11.81;82.14
62438;BME280;48481;0.000;0.000;2023-05-11T04:20:54;101140.66;;;11.91;81.47
62438;BME280;48481;0.000;0.000;2023-05-11T04:23:19;101136.81;;;11.77;81.91
62438;BME280;48481;0.000;0.000;2023-05-11T04:25:44;101141.41;;;11.59;82.65
62438;BME280;48481;0.000;0.000;2023-05-11T04:28:10;101146.22;;;11.55;82.98
62438;BME280;48481;0.000;0.000;2023-05-11T04:30:35;101151.84;;;11.52;83.24
62438;BME280;48481;0.000;0.000;2023-05-11T04:33:01;101150.03;;;11.44;83.37
62438;BME280;48481;0.000;0.000;2023-05-11T04:35:26;101140.94;;;11.63;82.03
62438;BME280;48481;0.000;0.000;2023-05-11T04:37:51;101155.56;;;11.09;83.61
62438;BME280;48481;0.000;0.000;2023-05-11T04:40:17;101153.16;;;11.40;83.21
62438;BME280;48481;0.000;0.000;2023-05-11T04:42:43;101159.72;;;11.20;83.30
62438;BME280;48481;0.000;0.000;2023-05-11T04:45:09;101162.09;;;11.31;83.25
62438;BME280;48481;0.000;0.000;2023-05-11T04:47:34;101151.00;;;11.35;82.96
62438;BME280;48481;0.000;0.000;2023-05-11T04:50:00;101160.00;;;11.67;82.02
62438;BME280;48481;0.000;0.000;2023-05-11T04:52:25;101166.94;;;11.52;81.57
62438;BME280;48481;0.000;0.000;2023-05-11T04:54:50;101168.25;;;10.97;84.47
62438;BME280;48481;0.000;0.000;2023-05-11T04:57:17;101174.56;;;11.04;84.98
62438;BME280;48481;0.000;0.000;2023-05-11T04:59:42;101168.38;;;11.38;83.46
62438;BME280;48481;0.000;0.000;2023-05-11T05:02:07;101170.56;;;11.42;82.98
62438;BME280;48481;0.000;0.000;2023-05-11T05:04:33;101155.22;;;11.70;81.76
62438;BME280;48481;0.000;0.000;2023-05-11T05:06:58;101158.41;;;11.16;83.71
62438;BME280;48481;0.000;0.000;2023-05-11T05:09:23;101169.88;;;11.32;83.50
62438;BME280;48481;0.000;0.000;2023-05-11T05:11:49;101171.41;;;11.51;82.85
62438;BME280;48481;0.000;0.000;2023-05-11T05:14:14;101172.31;;;11.18;84.11
62438;BME280;48481;0.000;0.000;2023-05-11T05:16:40;101174.47;;;10.88;85.51
62438;BME280;48481;0.000;0.000;2023-05-11T05:19:05;101171.72;;;10.98;85.87
62438;BME280;48481;0.000;0.000;2023-05-11T05:21:31;101173.53;;;10.63;86.94
62438;BME280;48481;0.000;0.000;2023-05-11T05:23:56;101174.53;;;10.62;87.58
62438;BME280;48481;0.000;0.000;2023-05-11T05:26:22;101173.97;;;10.85;86.60
62438;BME280;48481;0.000;0.000;2023-05-11T05:28:47;101171.88;;;10.96;86.33
62438;BME280;48481;0.000;0.000;2023-05-11T05:31:12;101172.03;;;10.95;86.29
62438;BME280;48481;0.000;0.000;2023-05-11T05:33:38;101176.94;;;10.82;86.61
62438;BME280;48481;0.000;0.000;2023-05-11T05:36:03;101179.84;;;11.04;86.15
62438;BME280;48481;0.000;0.000;2023-05-11T05:38:29;101184.53;;;11.10;85.97
62438;BME280;48481;0.000;0.000;2023-05-11T05:40:54;101182.81;;;11.01;86.33
62438;BME280;48481;0.000;0.000;2023-05-11T05:43:19;101189.78;;;11.02;86.21
62438;BME280;48481;0.000;0.000;2023-05-11T05:45:45;101187.56;;;11.24;85.58
62438;BME280;48481;0.000;0.000;2023-05-11T05:48:10;101190.25;;;11.32;85.05
62438;BME280;48481;0.000;0.000;2023-05-11T05:50:36;101192.97;;;11.06;85.72
62438;BME280;48481;0.000;0.000;2023-05-11T05:53:01;101196.38;;;10.98;86.63
62438;BME280;48481;0.000;0.000;2023-05-11T05:55:26;101197.69;;;10.94;86.88
62438;BME280;48481;0.000;0.000;2023-05-11T05:57:52;101195.97;;;11.11;86.66
62438;BME280;48481;0.000;0.000;2023-05-11T06:00:18;101201.81;;;11.31;85.83
62438;BME280;48481;0.000;0.000;2023-05-11T06:02:43;101201.34;;;11.35;85.41
62438;BME280;48481;0.000;0.000;2023-05-11T06:05:09;101202.19;;;11.44;84.83
62438;BME280;48481;0.000;0.000;2023-05-11T06:07:34;101211.13;;;11.35;84.82
62438;BME280;48481;0.000;0.000;2023-05-11T06:09:59;101202.72;;;11.05;86.60
62438;BME280;48481;0.000;0.000;2023-05-11T06:12:25;101213.88;;;10.91;86.87
62438;BME280;48481;0.000;0.000;2023-05-11T06:14:50;101214.16;;;11.06;86.26
62438;BME280;48481;0.000;0.000;2023-05-11T06:17:16;101213.72;;;11.19;85.73
62438;BME280;48481;0.000;0.000;2023-05-11T06:19:41;101214.19;;;10.88;86.74
62438;BME280;48481;0.000;0.000;2023-05-11T06:22:07;101213.72;;;10.93;86.86
62438;BME280;48481;0.000;0.000;2023-05-11T06:24:32;101215.09;;;10.71;87.44
62438;BME280;48481;0.000;0.000;2023-05-11T06:26:58;101218.63;;;11.05;86.32
62438;BME280;48481;0.000;0.000;2023-05-11T06:29:23;101216.72;;;11.24;85.21
62438;BME280;48481;0.000;0.000;2023-05-11T06:31:48;101210.00;;;11.54;84.19
62438;BME280;48481;0.000;0.000;2023-05-11T06:34:18;101213.22;;;11.73;82.93
62438;BME280;48481;0.000;0.000;2023-05-11T06:36:44;101211.50;;;11.64;83.57
62438;BME280;48481;0.000;0.000;2023-05-11T06:39:09;101213.06;;;11.25;85.22
62438;BME280;48481;0.000;0.000;2023-05-11T06:41:35;101225.97;;;11.20;85.02
62438;BME280;48481;0.000;0.000;2023-05-11T06:44:00;101219.53;;;11.30;85.01
62438;BME280;48481;0.000;0.000;2023-05-11T06:46:25;101213.25;;;11.31;85.20
62438;BME280;48481;0.000;0.000;2023-05-11T06:48:51;101221.75;;;11.51;84.65
62438;BME280;48481;0.000;0.000;2023-05-11T06:51:16;101220.81;;;11.68;84.19
62438;BME280;48481;0.000;0.000;2023-05-11T06:53:42;101222.13;;;11.64;84.44
62438;BME280;48481;0.000;0.000;2023-05-11T06:56:07;101215.94;;;11.98;83.41
62438;BME280;48481;0.000;0.000;2023-05-11T06:58:32;101214.94;;;12.23;81.75
62438;BME280;48481;0.000;0.000;2023-05-11T07:00:58;101225.91;;;12.45;80.68
62438;BME280;48481;0.000;0.000;2023-05-11T07:03:23;101226.88;;;12.60;79.74
62438;BME280;48481;0.000;0.000;2023-05-11T07:05:49;101222.53;;;12.75;79.41
62438;BME280;48481;0.000;0.000;2023-05-11T07:08:14;101222.34;;;12.77;78.80
62438;BME280;48481;0.000;0.000;2023-05-11T07:10:39;101225.28;;;12.90;78.87
62438;BME280;48481;0.000;0.000;2023-05-11T07:13:06;101218.81;;;13.00;78.45
62438;BME280;48481;0.000;0.000;2023-05-11T07:15:31;101227.31;;;12.80;79.19
62438;BME280;48481;0.000;0.000;2023-05-11T07:17:57;101222.09;;;12.39;80.78
62438;BME280;48481;0.000;0.000;2023-05-11T07:20:23;101226.38;;;12.48;81.04
62438;BME280;48481;0.000;0.000;2023-05-11T07:22:48;101228.81;;;12.82;79.21
62438;BME280;48481;0.000;0.000;2023-05-11T07:25:13;101226.34;;;12.73;78.97
62438;BME280;48481;0.000;0.000;2023-05-11T07:27:39;101229.97;;;12.80;79.34
62438;BME280;48481;0.000;0.000;2023-05-11T07:30:05;101224.09;;;13.09;78.03
62438;BME280;48481;0.000;0.000;2023-05-11T07:32:31;101225.06;;;13.16;77.81
62438;BME280;48481;0.000;0.000;2023-05-11T07:34:56;101228.16;;;12.80;79.27
62438;BME280;48481;0.000;0.000;2023-05-11T07:37:21;101230.38;;;12.44;80.69
62438;BME280;48481;0.000;0.000;2023-05-11T07:39:47;101222.56;;;12.34;81.41
62438;BME280;48481;0.000;0.000;2023-05-11T07:42:12;101236.31;;;12.62;80.82
62438;BME280;48481;0.000;0.000;2023-05-11T07:44:37;101224.78;;;12.94;79.19
62438;BME280;48481;0.000;0.000;2023-05-11T07:47:03;101227.06;;;13.22;77.96
62438;BME280;48481;0.000;0.000;2023-05-11T07:49:28;101221.06;;;13.28;77.58
62438;BME280;48481;0.000;0.000;2023-05-11T07:51:54;101227.38;;;13.27;78.22
62438;BME280;48481;0.000;0.000;2023-05-11T07:54:19;101233.00;;;13.32;77.86
62438;BME280;48481;0.000;0.000;2023-05-11T07:56:45;101237.19;;;13.57;76.92
62438;BME280;48481;0.000;0.000;2023-05-11T07:59:10;101235.78;;;13.39;78.22
62438;BME280;48481;0.000;0.000;2023-05-11T08:01:35;101237.41;;;13.00;80.04
62438;BME280;48481;0.000;0.000;2023-05-11T08:04:01;101240.00;;;13.25;79.36
62438;BME280;48481;0.000;0.000;2023-05-11T08:06:27;101245.34;;;13.56;78.32
62438;BME280;48481;0.000;0.000;2023-05-11T08:08:52;101245.56;;;13.46;78.56
62438;BME280;48481;0.000;0.000;2023-05-11T08:11:18;101241.97;;;13.70;77.66
62438;BME280;48481;0.000;0.000;2023-05-11T08:13:43;101249.47;;;13.67;77.94
62438;BME280;48481;0.000;0.000;2023-05-11T08:16:08;101236.00;;;13.91;77.04
62438;BME280;48481;0.000;0.000;2023-05-11T08:18:34;101241.56;;;14.04;76.63
62438;BME280;48481;0.000;0.000;2023-05-11T08:20:59;101240.09;;;14.02;75.40
62438;BME280;48481;0.000;0.000;2023-05-11T08:23:24;101244.09;;;13.98;75.93
62438;BME280;48481;0.000;0.000;2023-05-11T08:25:51;101242.97;;;13.69;77.88
62438;BME280;48481;0.000;0.000;2023-05-11T08:28:17;101248.69;;;13.11;80.26
62438;BME280;48481;0.000;0.000;2023-05-11T08:30:43;101247.84;;;13.18;80.20
62438;BME280;48481;0.000;0.000;2023-05-11T08:33:08;101250.59;;;13.33;80.19
62438;BME280;48481;0.000;0.000;2023-05-11T08:35:34;101249.22;;;13.45;79.81
62438;BME280;48481;0.000;0.000;2023-05-11T08:37:59;101245.00;;;13.59;79.34
62438;BME280;48481;0.000;0.000;2023-05-11T08:40:26;101249.84;;;13.55;79.58
62438;BME280;48481;0.000;0.000;2023-05-11T08:42:54;101252.31;;;13.26;80.07
62438;BME280;48481;0.000;0.000;2023-05-11T08:45:21;101258.16;;;12.89;81.88
62438;BME280;48481;0.000;0.000;2023-05-11T08:47:46;101254.72;;;12.80;82.41
62438;BME280;48481;0.000;0.000;2023-05-11T08:50:13;101248.06;;;12.84;83.29
62438;BME280;48481;0.000;0.000;2023-05-11T08:52:39;101252.34;;;12.93;82.67
62438;BME280;48481;0.000;0.000;2023-05-11T08:55:06;101263.00;;;12.85;83.00
62438;BME280;48481;0.000;0.000;2023-05-11T08:57:33;101253.72;;;12.81;82.73
62438;BME280;48481;0.000;0.000;2023-05-11T09:00:00;101248.72;;;12.86;81.97
62438;BME280;48481;0.000;0.000;2023-05-11T09:02:27;101260.38;;;12.61;83.12
62438;BME280;48481;0.000;0.000;2023-05-11T09:04:53;101258.22;;;12.73;83.48
62438;BME280;48481;0.000;0.000;2023-05-11T09:07:19;101258.03;;;12.74;83.49
62438;BME280;48481;0.000;0.000;2023-05-11T09:09:45;101267.50;;;12.68;83.73
62438;BME280;48481;0.000;0.000;2023-05-11T09:12:12;101266.53;;;12.61;84.07
62438;BME280;48481;0.000;0.000;2023-05-11T09:17:10;101257.41;;;12.56;84.19
62438;BME280;48481;0.000;0.000;2023-05-11T09:19:35;101258.41;;;12.38;84.64
62438;BME280;48481;0.000;0.000;2023-05-11T09:22:00;101256.91;;;12.60;84.31
62438;BME280;48481;0.000;0.000;2023-05-11T09:24:27;101269.69;;;12.65;84.83
62438;BME280;48481;0.000;0.000;2023-05-11T09:27:06;101262.53;;;12.65;84.51
62438;BME280;48481;0.000;0.000;2023-05-11T09:29:33;101263.16;;;12.92;83.82
62438;BME280;48481;0.000;0.000;2023-05-11T09:31:58;101272.31;;;12.73;84.70
62438;BME280;48481;0.000;0.000;2023-05-11T09:34:23;101266.53;;;12.37;86.46
62438;BME280;48481;0.000;0.000;2023-05-11T09:36:50;101269.38;;;12.44;87.15
62438;BME280;48481;0.000;0.000;2023-05-11T09:39:15;101270.69;;;12.48;87.17
62438;BME280;48481;0.000;0.000;2023-05-11T09:41:43;101267.03;;;12.57;87.32
62438;BME280;48481;0.000;0.000;2023-05-11T09:44:14;101267.97;;;12.88;86.60
62438;BME280;48481;0.000;0.000;2023-05-11T09:46:42;101271.63;;;12.79;86.37
62438;BME280;48481;0.000;0.000;2023-05-11T09:49:08;101273.31;;;12.72;86.95
62438;BME280;48481;0.000;0.000;2023-05-11T09:51:35;101270.34;;;12.67;86.13
62438;BME280;48481;0.000;0.000;2023-05-11T09:54:14;101277.63;;;12.65;86.88
62438;BME280;48481;0.000;0.000;2023-05-11T09:56:50;101274.63;;;12.76;86.56
62438;BME280;48481;0.000;0.000;2023-05-11T09:59:35;101277.63;;;12.73;87.11
62438;BME280;48481;0.000;0.000;2023-05-11T10:04:46;101270.31;;;12.83;86.45
62438;BME280;48481;0.000;0.000;2023-05-11T10:07:22;101275.00;;;12.65;87.15
62438;BME280;48481;0.000;0.000;2023-05-11T10:09:48;101274.31;;;12.63;88.08
62438;BME280;48481;0.000;0.000;2023-05-11T10:12:15;101275.66;;;12.67;87.32
62438;BME280;48481;0.000;0.000;2023-05-11T10:14:41;101272.63;;;12.78;86.70
62438;BME280;48481;0.000;0.000;2023-05-11T10:17:09;101267.66;;;12.75;86.71
62438;BME280;48481;0.000;0.000;2023-05-11T10:19:34;101272.81;;;12.77;86.88
62438;BME280;48481;0.000;0.000;2023-05-11T10:22:01;101269.31;;;12.76;86.41
62438;BME280;48481;0.000;0.000;2023-05-11T10:24:26;101266.94;;;12.97;86.07
62438;BME280;48481;0.000;0.000;2023-05-11T10:26:53;101270.00;;;12.70;86.30
62438;BME280;48481;0.000;0.000;2023-05-11T10:29:21;101262.69;;;12.72;86.26
62438;BME280;48481;0.000;0.000;2023-05-11T10:31:48;101261.03;;;12.79;86.13
62438;BME280;48481;0.000;0.000;2023-05-11T10:34:16;101265.28;;;12.96;85.91
62438;BME280;48481;0.000;0.000;2023-05-11T10:36:44;101263.00;;;12.85;85.89
62438;BME280;48481;0.000;0.000;2023-05-11T10:39:10;101258.50;;;13.02;85.13
62438;BME280;48481;0.000;0.000;2023-05-11T10:41:40;101263.31;;;13.07;85.20
62438;BME280;48481;0.000;0.000;2023-05-11T10:44:48;101261.63;;;13.14;84.89
62438;BME280;48481;0.000;0.000;2023-05-11T10:55:53;101260.44;;;13.24;85.28
62438;BME280;48481;0.000;0.000;2023-05-11T11:01:41;101259.78;;;13.22;84.72
62438;BME280;48481;0.000;0.000;2023-05-11T11:04:09;101261.41;;;13.31;84.93
62438;BME280;48481;0.000;0.000;2023-05-11T11:06:37;101256.22;;;13.38;84.42
62438;BME280;48481;0.000;0.000;2023-05-11T11:09:05;101261.78;;;13.59;84.71
62438;BME280;48481;0.000;0.000;2023-05-11T11:11:35;101258.72;;;13.40;84.29
62438;BME280;48481;0.000;0.000;2023-05-11T11:14:02;101254.56;;;13.37;83.70
62438;BME280;48481;0.000;0.000;2023-05-11T11:16:33;101258.75;;;13.71;83.79
62438;BME280;48481;0.000;0.000;2023-05-11T11:21:57;101264.81;;;13.48;84.04
62438;BME280;48481;0.000;0.000;2023-05-11T11:27:04;101257.75;;;13.72;83.27
62438;BME280;48481;0.000;0.000;2023-05-11T11:29:30;101250.91;;;13.77;82.89
62438;BME280;48481;0.000;0.000;2023-05-11T11:32:28;101260.25;;;14.19;82.07
62438;BME280;48481;0.000;0.000;2023-05-11T11:34:53;101257.34;;;14.06;81.96
62438;BME280;48481;0.000;0.000;2023-05-11T11:37:19;101261.50;;;14.08;82.24
62438;BME280;48481;0.000;0.000;2023-05-11T11:39:47;101263.81;;;14.11;81.92
62438;BME280;48481;0.000;0.000;2023-05-11T11:42:33;101261.09;;;13.96;82.42
62438;BME280;48481;0.000;0.000;2023-05-11T11:45:29;101262.16;;;13.87;82.86
62438;BME280;48481;0.000;0.000;2023-05-11T11:48:08;101265.09;;;13.92;82.61
62438;BME280;48481;0.000;0.000;2023-05-11T11:50:34;101255.81;;;13.88;82.83
62438;BME280;48481;0.000;0.000;2023-05-11T11:53:00;101263.50;;;14.06;82.86
62438;BME280;48481;0.000;0.000;2023-05-11T11:55:48;101262.09;;;14.18;82.51
62438;BME280;48481;0.000;0.000;2023-05-11T11:58:55;101257.72;;;14.48;81.30
62438;BME280;48481;0.000;0.000;2023-05-11T12:01:24;101259.56;;;14.48;81.44
62438;BME280;48481;0.000;0.000;2023-05-11T12:06:56;101253.59;;;14.46;81.54
62438;BME280;48481;0.000;0.000;2023-05-11T12:09:23;101255.00;;;14.34;81.30
62438;BME280;48481;0.000;0.000;2023-05-11T12:11:48;101255.25;;;14.47;80.54
62438;BME280;48481;0.000;0.000;2023-05-11T12:14:14;101253.41;;;14.47;80.67
62438;BME280;48481;0.000;0.000;2023-05-11T12:16:42;101257.41;;;14.81;80.19
62438;BME280;48481;0.000;0.000;2023-05-11T12:19:07;101247.63;;;15.11;79.36
62438;BME280;48481;0.000;0.000;2023-05-11T12:21:32;101238.03;;;15.31;78.81
62438;BME280;48481;0.000;0.000;2023-05-11T12:24:00;101241.47;;;15.76;76.71
62438;BME280;48481;0.000;0.000;2023-05-11T12:26:27;101233.72;;;15.81;76.80
62438;BME280;48481;0.000;0.000;2023-05-11T12:29:06;101254.03;;;15.31;76.63
62438;BME280;48481;0.000;0.000;2023-05-11T12:31:40;101246.06;;;15.16;77.88
62438;BME280;48481;0.000;0.000;2023-05-11T12:34:05;101242.91;;;15.28;77.77
62438;BME280;48481;0.000;0.000;2023-05-11T12:36:32;101243.38;;;15.61;76.17
62438;BME280;48481;0.000;0.000;2023-05-11T12:38:58;101243.97;;;15.48;76.29
62438;BME280;48481;0.000;0.000;2023-05-11T12:41:24;101241.94;;;15.79;75.90
62438;BME280;48481;0.000;0.000;2023-05-11T12:43:51;101245.69;;;15.85;76.02
62438;BME280;48481;0.000;0.000;2023-05-11T12:46:17;101246.19;;;16.16;74.80
62438;BME280;48481;0.000;0.000;2023-05-11T12:48:44;101245.03;;;15.62;75.96
62438;BME280;48481;0.000;0.000;2023-05-11T12:51:10;101237.91;;;15.54;76.38
62438;BME280;48481;0.000;0.000;2023-05-11T12:53:35;101241.94;;;15.50;76.78
62438;BME280;48481;0.000;0.000;2023-05-11T12:56:01;101243.00;;;15.64;76.17
62438;BME280;48481;0.000;0.000;2023-05-11T12:58:35;101238.91;;;15.53;76.58
62438;BME280;48481;0.000;0.000;2023-05-11T13:01:01;101233.16;;;15.85;75.82
62438;BME280;48481;0.000;0.000;2023-05-11T13:03:28;101231.13;;;16.30;73.52
62438;BME280;48481;0.000;0.000;2023-05-11T13:06:07;101228.44;;;16.52;72.65
62438;BME280;48481;0.000;0.000;2023-05-11T13:08:35;101236.41;;;16.02;72.89
62438;BME280;48481;0.000;0.000;2023-05-11T13:11:17;101229.22;;;16.03;73.10
62438;BME280;48481;0.000;0.000;2023-05-11T13:13:43;101216.81;;;16.16;72.18
62438;BME280;48481;0.000;0.000;2023-05-11T13:16:08;101224.06;;;16.01;73.69
62438;BME280;48481;0.000;0.000;2023-05-11T13:18:34;101225.78;;;15.88;73.44
62438;BME280;48481;0.000;0.000;2023-05-11T13:21:04;101217.16;;;16.28;73.19
62438;BME280;48481;0.000;0.000;2023-05-11T13:23:30;101222.28;;;15.87;74.25
62438;BME280;48481;0.000;0.000;2023-05-11T13:25:55;101221.16;;;15.96;74.21
62438;BME280;48481;0.000;0.000;2023-05-11T13:28:22;101216.97;;;15.87;74.56
62438;BME280;48481;0.000;0.000;2023-05-11T13:30:49;101214.59;;;15.77;74.73
62438;BME280;48481;0.000;0.000;2023-05-11T13:33:17;101219.00;;;15.85;74.43
62438;BME280;48481;0.000;0.000;2023-05-11T13:35:44;101202.78;;;16.29;73.02
62438;BME280;48481;0.000;0.000;2023-05-11T13:38:10;101199.41;;;16.48;72.07
62438;BME280;48481;0.000;0.000;2023-05-11T13:40:36;101202.03;;;16.98;70.24